Cv-9 — ZGGD5 — position and weather

sailwx.info

Track history (hours):
 
Tides and Currents Weather Stations Pressure Air Temp Water Temp Dewpoint Dewpoint Depression Visibility Wind Speed Wind Dir Waves Ship Positions

Cv-9

Last reported at 2018-Jul-22 08:00 UTC. Time now 2018-Jul-22 08:16 UTC.
Position N 47°40' W 122°23'.

Length 42 m; draft 2.5 m.

Type: Pleasure craft. MMSI: 319107100.

Date/timePositionNaut miles runAvg speedWind from/ knotsBaromVisibWave heightAir tempDewpointWater temp
2018-Jul-22 08:00N 47°40' W 122°23'0 0.0
2018-Jul-22 07:30N 47°40' W 122°23'0 0.0
2018-Jul-22 07:00N 47°40' W 122°23'0 0.0
2018-Jul-22 06:30N 47°40' W 122°23'0 0.0
2018-Jul-22 06:00N 47°40' W 122°23'0 0.0
2018-Jul-22 05:30N 47°40' W 122°23'0 0.0
2018-Jul-22 05:00N 47°40' W 122°23'0 0.0
2018-Jul-22 04:30N 47°40' W 122°23'0 0.0
2018-Jul-22 04:00N 47°40' W 122°23'0 0.0
2018-Jul-22 03:30N 47°40' W 122°23'0 0.0
2018-Jul-22 03:00N 47°40' W 122°23'0 0.0
2018-Jul-22 02:30N 47°40' W 122°23'0 0.0
2018-Jul-22 02:00N 47°40' W 122°23'0 0.0
2018-Jul-22 01:30N 47°40' W 122°23'0 0.0
2018-Jul-22 01:00N 47°40' W 122°23'0 0.0
2018-Jul-22 00:30N 47°40' W 122°23'0 0.0
2018-Jul-22 00:00N 47°40' W 122°23'0 0.0
2018-Jul-21 23:27N 47°40' W 122°23'0 0.0
2018-Jul-21 23:00N 47°40' W 122°23'0 0.0
2018-Jul-21 22:30N 47°40' W 122°23'1 1.3
2018-Jul-21 22:00N 47°40' W 122°24'0 0.3
2018-Jul-21 21:30N 47°40' W 122°24'1 2.2
2018-Jul-21 21:00N 47°41' W 122°25'3 6.5
2018-Jul-21 20:30N 47°38' W 122°23'0 0.8
2018-Jul-21 20:01N 47°38' W 122°24'5 9.5
2018-Jul-21 19:30N 47°41' W 122°28'611.8
2018-Jul-21 19:00N 47°47' W 122°27'612.6
2018-Jul-21 18:30N 47°54' W 122°29'3312.5
2018-Jul-21 15:51N 48°21' W 122°56'411.6
2018-Jul-21 15:30N 48°26' W 122°57'611.7
2018-Jul-21 15:00N 48°31' W 122°57'3 5.3
2018-Jul-21 14:30N 48°32' W 123°01'0 0.0
2018-Jul-21 13:30N 48°32' W 123°01'0 0.0
2018-Jul-21 12:59N 48°32' W 123°01'0 0.0
2018-Jul-21 12:30N 48°32' W 123°01'0 0.0
2018-Jul-21 12:00N 48°32' W 123°01'0 0.0
2018-Jul-21 11:29N 48°32' W 123°01'0 0.0
2018-Jul-21 11:00N 48°32' W 123°01'0 0.0
2018-Jul-21 10:30N 48°32' W 123°01'0 0.0
2018-Jul-21 10:00N 48°32' W 123°01'0 0.0
2018-Jul-21 09:30N 48°32' W 123°01'0 0.0
2018-Jul-21 08:59N 48°32' W 123°01'0 0.0
2018-Jul-21 08:29N 48°32' W 123°01'0 0.0
2018-Jul-21 07:59N 48°32' W 123°01'0 0.0
2018-Jul-21 07:27N 48°32' W 123°01'0 0.0
2018-Jul-21 06:56N 48°32' W 123°01'0 0.0
2018-Jul-21 06:26N 48°32' W 123°01'0 0.0
2018-Jul-21 05:57N 48°32' W 123°01'0 0.0
2018-Jul-21 05:30N 48°32' W 123°01'0 0.0
2018-Jul-21 04:53N 48°32' W 123°01'0 0.0
2018-Jul-21 04:30N 48°32' W 123°01'0 0.0
2018-Jul-21 03:56N 48°32' W 123°01'0 0.0
2018-Jul-21 03:29N 48°32' W 123°01'0 0.0
2018-Jul-21 02:56N 48°32' W 123°01'0 0.0
2018-Jul-21 02:27N 48°32' W 123°01'0 0.0
2018-Jul-21 01:54N 48°32' W 123°01'0 0.0
2018-Jul-21 01:29N 48°32' W 123°01'0 0.0
2018-Jul-21 01:00N 48°32' W 123°01'0 0.0
2018-Jul-21 00:29N 48°32' W 123°01'0 0.1
2018-Jul-20 23:59N 48°32' W 123°01'0 0.0
2018-Jul-20 23:29N 48°32' W 123°01'0 0.0
2018-Jul-20 22:54N 48°32' W 123°01'1 1.7
2018-Jul-20 22:30N 48°33' W 123°00'510.8
2018-Jul-20 22:00N 48°38' W 123°03'712.9
2018-Jul-20 21:27N 48°44' W 122°59'2312.3
2018-Jul-20 19:37N 49°00' W 123°23'0 3.1
2018-Jul-20 19:29N 48°60' W 123°23'5312.0
2018-Jul-20 15:02N 49°26' W 124°34'012.9
2018-Jul-20 15:00N 49°26' W 124°35'1212.0
2018-Jul-20 13:58N 49°33' W 124°51'612.7
2018-Jul-20 13:30N 49°38' W 124°54'2 0.1
2018-Jul-19 23:43N 49°40' W 124°56'1 5.3
2018-Jul-19 23:26N 49°39' W 124°54'3 6.3
2018-Jul-19 23:00N 49°40' W 124°50'510.1
2018-Jul-19 22:30N 49°45' W 124°53'611.6
2018-Jul-19 22:00N 49°50' W 124°59'612.7
2018-Jul-19 21:30N 49°54' W 125°05'612.0
2018-Jul-19 21:00N 49°59' W 125°12'4 7.8
2018-Jul-19 20:30N 50°02' W 125°15'0 0.1
2018-Jul-19 19:59N 50°02' W 125°15'0 0.0
2018-Jul-19 19:30N 50°02' W 125°15'0 0.0
2018-Jul-19 19:00N 50°02' W 125°15'2 4.9
2018-Jul-19 18:30N 50°04' W 125°16'612.0
2018-Jul-19 18:00N 50°09' W 125°22'612.1
2018-Jul-19 17:30N 50°15' W 125°24'611.5
2018-Jul-19 16:59N 50°21' W 125°24'31 1.9
2018-Jul-19 01:15N 50°28' W 126°11'312.9
2018-Jul-19 00:59N 50°29' W 126°16'613.0
2018-Jul-19 00:30N 50°30' W 126°26'712.3
2018-Jul-18 23:58N 50°31' W 126°36'612.1
2018-Jul-18 23:30N 50°35' W 126°42'712.9
2018-Jul-18 23:00N 50°39' W 126°50'713.6
2018-Jul-18 22:29N 50°42' W 126°60'712.6
2018-Jul-18 21:55N 50°45' W 127°10'612.8
2018-Jul-18 21:27N 50°47' W 127°18'612.5
2018-Jul-18 21:00N 50°50' W 127°27'612.2
2018-Jul-18 20:30N 50°53' W 127°35'611.2
2018-Jul-18 20:00N 50°56' W 127°42'611.4
2018-Jul-18 19:29N 51°01' W 127°48'612.2
2018-Jul-18 19:00N 51°07' W 127°51'612.1
2018-Jul-18 18:30N 51°13' W 127°52'612.6
2018-Jul-18 17:59N 51°19' W 127°52'612.7
2018-Jul-18 17:29N 51°25' W 127°52'612.4
2018-Jul-18 17:00N 51°31' W 127°52'612.6
2018-Jul-18 16:30N 51°37' W 127°54'612.6
2018-Jul-18 16:00N 51°44' W 127°56'612.4
2018-Jul-18 15:30N 51°50' W 127°56'612.6
2018-Jul-18 15:00N 51°56' W 127°56'612.9
2018-Jul-18 14:30N 52°03' W 127°56'10 9.9
2018-Jul-18 13:30N 52°09' W 128°08'2 1.5
2018-Jul-18 12:07N 52°09' W 128°05'0 0.0
2018-Jul-18 11:58N 52°09' W 128°05'0 0.0
2018-Jul-18 11:25N 52°09' W 128°05'0 0.0
2018-Jul-18 10:28N 52°09' W 128°05'0 0.0
2018-Jul-18 09:58N 52°09' W 128°05'0 0.0
2018-Jul-18 09:22N 52°09' W 128°05'0 0.1
2018-Jul-18 08:58N 52°09' W 128°05'0 0.0
2018-Jul-18 08:28N 52°09' W 128°05'0 0.0
2018-Jul-18 07:58N 52°09' W 128°05'0 0.1
2018-Jul-18 07:28N 52°09' W 128°05'0 0.1
2018-Jul-18 06:58N 52°09' W 128°05'0 0.0
2018-Jul-18 06:28N 52°09' W 128°05'0 0.1
2018-Jul-18 05:55N 52°09' W 128°05'0 0.1
2018-Jul-18 05:28N 52°09' W 128°05'0 0.1
2018-Jul-18 04:58N 52°09' W 128°05'0 0.1
2018-Jul-18 04:28N 52°09' W 128°05'0 0.1
2018-Jul-18 03:59N 52°09' W 128°05'2 4.7
2018-Jul-18 03:30N 52°11' W 128°07'510.3
2018-Jul-18 02:59N 52°14' W 128°14'511.2
2018-Jul-18 02:29N 52°15' W 128°23'511.3
2018-Jul-18 02:00N 52°19' W 128°30'611.4
2018-Jul-18 01:30N 52°25' W 128°29'611.5
2018-Jul-18 00:58N 52°31' W 128°27'611.7
2018-Jul-18 00:29N 52°36' W 128°29'8411.1
2018-Jul-17 16:55N 53°44' W 129°51'512.9
2018-Jul-17 16:29N 53°48' W 129°58'612.7
2018-Jul-17 16:00N 53°53' W 130°05'611.2
2018-Jul-17 15:30N 53°57' W 130°12'612.2
2018-Jul-17 15:00N 54°02' W 130°15'612.2
2018-Jul-17 14:30N 54°08' W 130°19'612.2
2018-Jul-17 14:00N 54°14' W 130°21'510.3
2018-Jul-17 13:30N 54°19' W 130°20'0 0.4
2018-Jul-17 12:58N 54°19' W 130°19'0 0.0
2018-Jul-17 12:28N 54°19' W 130°19'0 0.0
2018-Jul-17 11:58N 54°19' W 130°19'0 0.0
2018-Jul-17 11:28N 54°19' W 130°19'0 0.0
2018-Jul-17 10:58N 54°19' W 130°19'0 0.0
2018-Jul-17 10:25N 54°19' W 130°19'0 0.0
2018-Jul-17 09:58N 54°19' W 130°19'0 0.0
2018-Jul-17 09:28N 54°19' W 130°19'0 0.0
2018-Jul-17 08:58N 54°19' W 130°19'0 0.0
2018-Jul-17 08:28N 54°19' W 130°19'0 0.0
2018-Jul-17 07:58N 54°19' W 130°19'0 0.0
2018-Jul-17 07:28N 54°19' W 130°19'0 0.0
2018-Jul-17 06:58N 54°19' W 130°19'0 0.0
2018-Jul-17 06:28N 54°19' W 130°19'0 0.0
2018-Jul-17 05:58N 54°19' W 130°19'0 0.0
2018-Jul-17 05:28N 54°19' W 130°19'0 0.0
2018-Jul-17 04:58N 54°19' W 130°19'0 0.0
2018-Jul-17 04:28N 54°19' W 130°19'0 0.0
2018-Jul-17 03:58N 54°19' W 130°19'0 0.0
2018-Jul-17 03:28N 54°19' W 130°19'0 0.0
2018-Jul-17 02:58N 54°19' W 130°19'0 0.0
2018-Jul-17 02:28N 54°19' W 130°19'0 0.0
2018-Jul-17 01:58N 54°19' W 130°19'0 0.0
2018-Jul-17 01:28N 54°19' W 130°19'0 0.0
2018-Jul-17 00:58N 54°19' W 130°19'0 0.1
2018-Jul-17 00:29N 54°19' W 130°19'7 7.0
2018-Jul-16 23:30N 54°14' W 130°28'612.0
2018-Jul-16 23:00N 54°19' W 130°34'612.6
2018-Jul-16 22:30N 54°25' W 130°38'611.8
2018-Jul-16 22:00N 54°30' W 130°41'612.0
2018-Jul-16 21:30N 54°36' W 130°44'611.9
2018-Jul-16 21:00N 54°41' W 130°48'  
Track history (hours):
 
Tides and Currents Weather Stations Pressure Air Temp Water Temp Dewpoint Dewpoint Depression Visibility Wind Speed Wind Dir Waves Ship Positions

Cv-9

Last reported at 2018-Jul-22 08:00 UTC. Time now 2018-Jul-22 08:16 UTC.
Position N 47°40' W 122°23'.

Length 42 m; draft 2.5 m.

Type: Pleasure craft. MMSI: 319107100.

Date/timePositionNaut miles runAvg speedWind from/ knotsBaromVisibWave heightAir tempDewpointWater temp
2018-Jul-22 08:00N 47°40' W 122°23'0 0.0
2018-Jul-22 07:30N 47°40' W 122°23'0 0.0
2018-Jul-22 07:00N 47°40' W 122°23'0 0.0
2018-Jul-22 06:30N 47°40' W 122°23'0 0.0
2018-Jul-22 06:00N 47°40' W 122°23'0 0.0
2018-Jul-22 05:30N 47°40' W 122°23'0 0.0
2018-Jul-22 05:00N 47°40' W 122°23'0 0.0
2018-Jul-22 04:30N 47°40' W 122°23'0 0.0
2018-Jul-22 04:00N 47°40' W 122°23'0 0.0
2018-Jul-22 03:30N 47°40' W 122°23'0 0.0
2018-Jul-22 03:00N 47°40' W 122°23'0 0.0
2018-Jul-22 02:30N 47°40' W 122°23'0 0.0
2018-Jul-22 02:00N 47°40' W 122°23'0 0.0
2018-Jul-22 01:30N 47°40' W 122°23'0 0.0
2018-Jul-22 01:00N 47°40' W 122°23'0 0.0
2018-Jul-22 00:30N 47°40' W 122°23'0 0.0
2018-Jul-22 00:00N 47°40' W 122°23'0 0.0
2018-Jul-21 23:27N 47°40' W 122°23'0 0.0
2018-Jul-21 23:00N 47°40' W 122°23'0 0.0
2018-Jul-21 22:30N 47°40' W 122°23'1 1.3
2018-Jul-21 22:00N 47°40' W 122°24'0 0.3
2018-Jul-21 21:30N 47°40' W 122°24'1 2.2
2018-Jul-21 21:00N 47°41' W 122°25'3 6.5
2018-Jul-21 20:30N 47°38' W 122°23'0 0.8
2018-Jul-21 20:01N 47°38' W 122°24'5 9.5
2018-Jul-21 19:30N 47°41' W 122°28'611.8
2018-Jul-21 19:00N 47°47' W 122°27'612.6
2018-Jul-21 18:30N 47°54' W 122°29'3312.5
2018-Jul-21 15:51N 48°21' W 122°56'411.6
2018-Jul-21 15:30N 48°26' W 122°57'611.7
2018-Jul-21 15:00N 48°31' W 122°57'3 5.3
2018-Jul-21 14:30N 48°32' W 123°01'0 0.0
2018-Jul-21 13:30N 48°32' W 123°01'0 0.0
2018-Jul-21 12:59N 48°32' W 123°01'0 0.0
2018-Jul-21 12:30N 48°32' W 123°01'0 0.0
2018-Jul-21 12:00N 48°32' W 123°01'0 0.0
2018-Jul-21 11:29N 48°32' W 123°01'0 0.0
2018-Jul-21 11:00N 48°32' W 123°01'0 0.0
2018-Jul-21 10:30N 48°32' W 123°01'0 0.0
2018-Jul-21 10:00N 48°32' W 123°01'0 0.0
2018-Jul-21 09:30N 48°32' W 123°01'0 0.0
2018-Jul-21 08:59N 48°32' W 123°01'0 0.0
2018-Jul-21 08:29N 48°32' W 123°01'0 0.0
2018-Jul-21 07:59N 48°32' W 123°01'0 0.0
2018-Jul-21 07:27N 48°32' W 123°01'0 0.0
2018-Jul-21 06:56N 48°32' W 123°01'0 0.0
2018-Jul-21 06:26N 48°32' W 123°01'0 0.0
2018-Jul-21 05:57N 48°32' W 123°01'0 0.0
2018-Jul-21 05:30N 48°32' W 123°01'0 0.0
2018-Jul-21 04:53N 48°32' W 123°01'0 0.0
2018-Jul-21 04:30N 48°32' W 123°01'0 0.0
2018-Jul-21 03:56N 48°32' W 123°01'0 0.0
2018-Jul-21 03:29N 48°32' W 123°01'0 0.0
2018-Jul-21 02:56N 48°32' W 123°01'0 0.0
2018-Jul-21 02:27N 48°32' W 123°01'0 0.0
2018-Jul-21 01:54N 48°32' W 123°01'0 0.0
2018-Jul-21 01:29N 48°32' W 123°01'0 0.0
2018-Jul-21 01:00N 48°32' W 123°01'0 0.0
2018-Jul-21 00:29N 48°32' W 123°01'0 0.1
2018-Jul-20 23:59N 48°32' W 123°01'0 0.0
2018-Jul-20 23:29N 48°32' W 123°01'0 0.0
2018-Jul-20 22:54N 48°32' W 123°01'1 1.7
2018-Jul-20 22:30N 48°33' W 123°00'510.8
2018-Jul-20 22:00N 48°38' W 123°03'712.9
2018-Jul-20 21:27N 48°44' W 122°59'2312.3
2018-Jul-20 19:37N 49°00' W 123°23'0 3.1
2018-Jul-20 19:29N 48°60' W 123°23'5312.0
2018-Jul-20 15:02N 49°26' W 124°34'012.9
2018-Jul-20 15:00N 49°26' W 124°35'1212.0
2018-Jul-20 13:58N 49°33' W 124°51'612.7
2018-Jul-20 13:30N 49°38' W 124°54'2 0.1
2018-Jul-19 23:43N 49°40' W 124°56'1 5.3
2018-Jul-19 23:26N 49°39' W 124°54'3 6.3
2018-Jul-19 23:00N 49°40' W 124°50'510.1
2018-Jul-19 22:30N 49°45' W 124°53'611.6
2018-Jul-19 22:00N 49°50' W 124°59'612.7
2018-Jul-19 21:30N 49°54' W 125°05'612.0
2018-Jul-19 21:00N 49°59' W 125°12'4 7.8
2018-Jul-19 20:30N 50°02' W 125°15'0 0.1
2018-Jul-19 19:59N 50°02' W 125°15'0 0.0
2018-Jul-19 19:30N 50°02' W 125°15'0 0.0
2018-Jul-19 19:00N 50°02' W 125°15'2 4.9
2018-Jul-19 18:30N 50°04' W 125°16'612.0
2018-Jul-19 18:00N 50°09' W 125°22'612.1
2018-Jul-19 17:30N 50°15' W 125°24'611.5
2018-Jul-19 16:59N 50°21' W 125°24'31 1.9
2018-Jul-19 01:15N 50°28' W 126°11'312.9
2018-Jul-19 00:59N 50°29' W 126°16'613.0
2018-Jul-19 00:30N 50°30' W 126°26'712.3
2018-Jul-18 23:58N 50°31' W 126°36'612.1
2018-Jul-18 23:30N 50°35' W 126°42'712.9
2018-Jul-18 23:00N 50°39' W 126°50'713.6
2018-Jul-18 22:29N 50°42' W 126°60'712.6
2018-Jul-18 21:55N 50°45' W 127°10'612.8
2018-Jul-18 21:27N 50°47' W 127°18'612.5
2018-Jul-18 21:00N 50°50' W 127°27'612.2
2018-Jul-18 20:30N 50°53' W 127°35'611.2
2018-Jul-18 20:00N 50°56' W 127°42'611.4
2018-Jul-18 19:29N 51°01' W 127°48'612.2
2018-Jul-18 19:00N 51°07' W 127°51'612.1
2018-Jul-18 18:30N 51°13' W 127°52'612.6
2018-Jul-18 17:59N 51°19' W 127°52'612.7
2018-Jul-18 17:29N 51°25' W 127°52'612.4
2018-Jul-18 17:00N 51°31' W 127°52'612.6
2018-Jul-18 16:30N 51°37' W 127°54'612.6
2018-Jul-18 16:00N 51°44' W 127°56'612.4
2018-Jul-18 15:30N 51°50' W 127°56'612.6
2018-Jul-18 15:00N 51°56' W 127°56'612.9
2018-Jul-18 14:30N 52°03' W 127°56'10 9.9
2018-Jul-18 13:30N 52°09' W 128°08'2 1.5
2018-Jul-18 12:07N 52°09' W 128°05'0 0.0
2018-Jul-18 11:58N 52°09' W 128°05'0 0.0
2018-Jul-18 11:25N 52°09' W 128°05'0 0.0
2018-Jul-18 10:28N 52°09' W 128°05'0 0.0
2018-Jul-18 09:58N 52°09' W 128°05'0 0.0
2018-Jul-18 09:22N 52°09' W 128°05'0 0.1
2018-Jul-18 08:58N 52°09' W 128°05'0 0.0
2018-Jul-18 08:28N 52°09' W 128°05'0 0.0
2018-Jul-18 07:58N 52°09' W 128°05'0 0.1
2018-Jul-18 07:28N 52°09' W 128°05'0 0.1
2018-Jul-18 06:58N 52°09' W 128°05'0 0.0
2018-Jul-18 06:28N 52°09' W 128°05'0 0.1
2018-Jul-18 05:55N 52°09' W 128°05'0 0.1
2018-Jul-18 05:28N 52°09' W 128°05'0 0.1
2018-Jul-18 04:58N 52°09' W 128°05'0 0.1
2018-Jul-18 04:28N 52°09' W 128°05'0 0.1
2018-Jul-18 03:59N 52°09' W 128°05'2 4.7
2018-Jul-18 03:30N 52°11' W 128°07'510.3
2018-Jul-18 02:59N 52°14' W 128°14'511.2
2018-Jul-18 02:29N 52°15' W 128°23'511.3
2018-Jul-18 02:00N 52°19' W 128°30'611.4
2018-Jul-18 01:30N 52°25' W 128°29'611.5
2018-Jul-18 00:58N 52°31' W 128°27'611.7
2018-Jul-18 00:29N 52°36' W 128°29'8411.1
2018-Jul-17 16:55N 53°44' W 129°51'512.9
2018-Jul-17 16:29N 53°48' W 129°58'612.7
2018-Jul-17 16:00N 53°53' W 130°05'611.2
2018-Jul-17 15:30N 53°57' W 130°12'612.2
2018-Jul-17 15:00N 54°02' W 130°15'612.2
2018-Jul-17 14:30N 54°08' W 130°19'612.2
2018-Jul-17 14:00N 54°14' W 130°21'510.3
2018-Jul-17 13:30N 54°19' W 130°20'0 0.4
2018-Jul-17 12:58N 54°19' W 130°19'0 0.0
2018-Jul-17 12:28N 54°19' W 130°19'0 0.0
2018-Jul-17 11:58N 54°19' W 130°19'0 0.0
2018-Jul-17 11:28N 54°19' W 130°19'0 0.0
2018-Jul-17 10:58N 54°19' W 130°19'0 0.0
2018-Jul-17 10:25N 54°19' W 130°19'0 0.0
2018-Jul-17 09:58N 54°19' W 130°19'0 0.0
2018-Jul-17 09:28N 54°19' W 130°19'0 0.0
2018-Jul-17 08:58N 54°19' W 130°19'0 0.0
2018-Jul-17 08:28N 54°19' W 130°19'0 0.0
2018-Jul-17 07:58N 54°19' W 130°19'0 0.0
2018-Jul-17 07:28N 54°19' W 130°19'0 0.0
2018-Jul-17 06:58N 54°19' W 130°19'0 0.0
2018-Jul-17 06:28N 54°19' W 130°19'0 0.0
2018-Jul-17 05:58N 54°19' W 130°19'0 0.0
2018-Jul-17 05:28N 54°19' W 130°19'0 0.0
2018-Jul-17 04:58N 54°19' W 130°19'0 0.0
2018-Jul-17 04:28N 54°19' W 130°19'0 0.0
2018-Jul-17 03:58N 54°19' W 130°19'0 0.0
2018-Jul-17 03:28N 54°19' W 130°19'0 0.0
2018-Jul-17 02:58N 54°19' W 130°19'0 0.0
2018-Jul-17 02:28N 54°19' W 130°19'0 0.0
2018-Jul-17 01:58N 54°19' W 130°19'0 0.0
2018-Jul-17 01:28N 54°19' W 130°19'0 0.0
2018-Jul-17 00:58N 54°19' W 130°19'0 0.1
2018-Jul-17 00:29N 54°19' W 130°19'7 7.0
2018-Jul-16 23:30N 54°14' W 130°28'612.0
2018-Jul-16 23:00N 54°19' W 130°34'612.6
2018-Jul-16 22:30N 54°25' W 130°38'611.8
2018-Jul-16 22:00N 54°30' W 130°41'612.0
2018-Jul-16 21:30N 54°36' W 130°44'611.9
2018-Jul-16 21:00N 54°41' W 130°48'  

Dump ship's entire track history